Time;durP1;ratioP1;P1;durP2;ratioP2;P2;SDS_P1;SDS_P2;PMS_P1;PMS_P2;Temp;Humidity;BMP_temperature;BMP_pressure;BME280_temperature;BME280_humidity;BME280_pressure;Samples;Min_cycle;Max_cycle;Signal;HPM_P1;HPM_P2
2023/08/05 00:02:12;;;;;;;1.37;1.27;;;24.00;98.20;;;;;;4961488;29;20507;-84
2023/08/05 00:04:39;;;;;;;1.10;1.00;;;24.00;98.20;;;;;;4961309;28;20520;-84
2023/08/05 00:07:06;;;;;;;1.30;1.20;;;24.00;98.10;;;;;;4961375;29;20480;-84
2023/08/05 00:09:32;;;;;;;1.13;1.03;;;24.00;98.00;;;;;;4961371;29;20442;-84
2023/08/05 00:12:00;;;;;;;1.10;1.00;;;24.00;98.00;;;;;;4962031;29;20450;-84
2023/08/05 00:14:28;;;;;;;1.60;1.07;;;24.00;98.10;;;;;;4961877;29;20929;-89
2023/08/05 00:16:58;;;;;;;1.10;0.93;;;24.00;98.10;;;;;;4961825;29;20444;-84
2023/08/05 00:19:26;;;;;;;1.20;1.00;;;24.00;98.10;;;;;;4961809;29;20500;-84
2023/08/05 00:21:53;;;;;;;1.20;1.00;;;24.00;98.10;;;;;;4962216;28;20449;-84
2023/08/05 00:24:20;;;;;;;1.20;1.10;;;24.00;98.10;;;;;;4967204;29;20833;-84
2023/08/05 00:26:46;;;;;;;1.20;1.10;;;24.00;98.00;;;;;;4962136;29;20465;-84
2023/08/05 00:29:13;;;;;;;1.30;1.20;;;24.00;98.00;;;;;;4962326;29;20481;-84
2023/08/05 00:31:41;;;;;;;1.23;0.97;;;24.00;98.00;;;;;;4962381;29;20446;-84
2023/08/05 00:34:08;;;;;;;1.20;0.90;;;24.00;98.00;;;;;;4962306;28;20501;-84
2023/08/05 00:36:36;;;;;;;1.30;1.20;;;24.00;97.90;;;;;;4962226;29;20499;-84
2023/08/05 00:39:05;;;;;;;1.20;1.10;;;24.00;97.90;;;;;;4962332;29;20449;-84
2023/08/05 00:41:32;;;;;;;1.70;1.00;;;24.00;97.90;;;;;;4961916;29;20861;-84
2023/08/05 00:44:01;;;;;;;1.30;1.13;;;24.00;97.90;;;;;;4960022;29;20512;-84
2023/08/05 00:46:29;;;;;;;1.40;1.30;;;24.00;97.90;;;;;;4960109;29;20475;-84
2023/08/05 00:48:57;;;;;;;1.50;1.40;;;24.00;98.00;;;;;;4962041;29;20457;-84
2023/08/05 00:51:26;;;;;;;1.10;1.00;;;24.00;98.00;;;;;;4962410;29;20526;-84
2023/08/05 00:53:57;;;;;;;1.33;1.23;;;24.00;98.10;;;;;;4962501;29;20491;-85
2023/08/05 00:56:27;;;;;;;1.20;1.10;;;24.00;98.10;;;;;;4961720;29;20434;-83
2023/08/05 00:58:54;;;;;;;1.27;1.17;;;24.00;98.10;;;;;;4960350;29;20451;-84
2023/08/05 01:01:23;;;;;;;1.40;1.30;;;24.00;98.00;;;;;;4960478;29;20445;-84
2023/08/05 01:03:50;;;;;;;1.20;1.10;;;24.00;97.90;;;;;;4959899;28;20452;-84
2023/08/05 01:06:20;;;;;;;1.10;1.00;;;24.00;97.80;;;;;;4963124;29;20474;-84
2023/08/05 01:08:47;;;;;;;1.40;1.30;;;24.00;97.80;;;;;;4962554;29;20481;-84
2023/08/05 01:13:56;;;;;;;1.40;1.03;;;24.00;98.20;;;;;;4963333;29;20490;-90
2023/08/05 01:16:23;;;;;;;1.40;1.13;;;24.00;98.00;;;;;;4958229;29;20445;-86
2023/08/05 01:18:51;;;;;;;1.33;1.23;;;23.90;97.90;;;;;;4955151;29;20541;-85
2023/08/05 01:21:22;;;;;;;1.20;1.10;;;23.90;98.00;;;;;;4955216;29;20473;-86
2023/08/05 01:23:57;;;;;;;1.40;1.30;;;24.00;98.30;;;;;;4955241;29;20448;-89
2023/08/05 01:26:25;;;;;;;1.00;0.90;;;23.90;98.10;;;;;;4955117;29;20457;-92
2023/08/05 01:28:52;;;;;;;1.43;1.27;;;23.90;98.00;;;;;;4955265;29;20517;-88
2023/08/05 01:31:20;;;;;;;1.43;1.00;;;23.90;97.90;;;;;;4955161;29;20868;-85
2023/08/05 01:33:48;;;;;;;1.20;1.10;;;24.00;98.60;;;;;;4955397;28;20574;-85
2023/08/05 01:36:20;;;;;;;1.70;1.50;;;23.90;98.00;;;;;;4958884;29;20536;-87
2023/08/05 01:38:48;;;;;;;1.60;1.20;;;23.90;98.10;;;;;;4958874;29;20477;-87
2023/08/05 01:41:15;;;;;;;1.40;1.20;;;23.90;98.10;;;;;;4958889;29;20499;-85
2023/08/05 01:43:43;;;;;;;1.30;1.20;;;23.90;98.70;;;;;;4958873;29;20981;-87
2023/08/05 01:46:10;;;;;;;1.60;1.20;;;23.90;98.10;;;;;;4958704;29;20549;-88
2023/08/05 01:48:37;;;;;;;1.30;1.20;;;23.90;98.10;;;;;;4958681;29;21011;-90
2023/08/05 01:51:04;;;;;;;1.23;1.10;;;24.00;98.20;;;;;;4958785;29;20448;-85
2023/08/05 01:53:31;;;;;;;1.20;1.10;;;23.90;98.10;;;;;;4958614;29;20843;-88
2023/08/05 01:55:58;;;;;;;1.17;1.03;;;23.90;98.00;;;;;;4958663;29;20447;-86
2023/08/05 01:58:24;;;;;;;1.50;1.10;;;23.90;98.00;;;;;;4958492;29;20530;-86
2023/08/05 02:00:53;;;;;;;1.33;1.23;;;23.90;98.20;;;;;;4958594;29;20448;-87
2023/08/05 02:03:20;;;;;;;4.53;1.20;;;23.90;98.20;;;;;;4958329;29;20444;-85
2023/08/05 02:05:47;;;;;;;1.40;1.30;;;23.90;98.60;;;;;;4958009;28;20481;-86
2023/08/05 02:08:14;;;;;;;1.37;1.27;;;23.90;98.40;;;;;;4958380;29;20446;-88
2023/08/05 02:10:41;;;;;;;1.37;1.10;;;23.90;98.40;;;;;;4958180;29;20437;-87
2023/08/05 02:13:08;;;;;;;1.17;1.07;;;23.90;98.30;;;;;;4958084;29;20584;-90
2023/08/05 02:15:35;;;;;;;1.47;1.10;;;23.90;98.40;;;;;;4958054;29;20530;-85
2023/08/05 02:18:03;;;;;;;1.90;1.20;;;23.90;98.40;;;;;;4958026;29;20450;-90
2023/08/05 02:20:30;;;;;;;1.40;1.30;;;23.90;98.40;;;;;;4958211;29;20446;-87
2023/08/05 02:22:57;;;;;;;1.23;1.13;;;23.90;98.30;;;;;;4958097;29;20945;-93
2023/08/05 02:25:24;;;;;;;1.37;1.27;;;23.90;98.40;;;;;;4958175;29;20533;-87
2023/08/05 02:27:50;;;;;;;1.10;1.00;;;23.90;98.50;;;;;;4958026;29;20446;-87
2023/08/05 02:30:18;;;;;;;1.30;1.20;;;23.90;98.30;;;;;;4957890;29;20442;-84
2023/08/05 02:32:44;;;;;;;2.07;1.20;;;23.90;98.40;;;;;;4957975;29;20952;-85
2023/08/05 02:35:12;;;;;;;1.40;1.30;;;23.80;98.30;;;;;;4957742;28;20491;-86
2023/08/05 02:37:40;;;;;;;1.33;1.23;;;23.90;98.20;;;;;;4957593;29;20529;-87
2023/08/05 02:40:08;;;;;;;1.83;1.20;;;23.90;98.40;;;;;;4957570;29;20441;-88
2023/08/05 02:42:35;;;;;;;1.33;1.23;;;23.80;98.30;;;;;;4957813;29;20839;-88
2023/08/05 02:45:02;;;;;;;1.40;1.27;;;23.90;98.50;;;;;;4957206;28;20479;-88
2023/08/05 02:47:29;;;;;;;1.50;1.30;;;23.90;98.30;;;;;;4957168;29;20464;-89
2023/08/05 02:49:59;;;;;;;1.37;1.27;;;23.90;98.30;;;;;;4957602;29;20453;-90
2023/08/05 02:52:27;;;;;;;1.60;1.50;;;23.80;98.30;;;;;;4957553;29;20442;-87
2023/08/05 02:54:54;;;;;;;1.30;1.20;;;23.80;98.30;;;;;;4957365;29;20511;-87
2023/08/05 02:57:21;;;;;;;2.03;1.20;;;23.90;98.30;;;;;;4957575;29;20523;-86
2023/08/05 02:59:47;;;;;;;1.30;1.10;;;23.90;98.60;;;;;;4957441;29;20450;-87
2023/08/05 03:02:14;;;;;;;1.20;1.10;;;23.80;98.40;;;;;;4957178;29;20545;-85
2023/08/05 03:04:41;;;;;;;1.77;1.10;;;23.90;98.60;;;;;;4957086;28;20471;-89
2023/08/05 03:07:08;;;;;;;1.27;1.17;;;23.90;98.40;;;;;;4957047;29;20470;-86
2023/08/05 03:09:36;;;;;;;1.57;1.47;;;23.90;98.70;;;;;;4957277;29;20529;-90
2023/08/05 03:12:07;;;;;;;1.33;1.23;;;23.90;98.70;;;;;;4957436;29;20534;-86
2023/08/05 03:14:33;;;;;;;1.30;1.10;;;23.80;98.60;;;;;;4957063;29;20494;-89
2023/08/05 03:17:00;;;;;;;1.57;1.33;;;23.90;98.70;;;;;;4957076;29;20442;-90
2023/08/05 03:19:27;;;;;;;1.20;1.10;;;23.80;98.60;;;;;;4956865;29;20453;-88
2023/08/05 03:21:54;;;;;;;1.20;1.10;;;23.90;98.70;;;;;;4957213;29;20451;-89
2023/08/05 03:24:21;;;;;;;2.23;1.20;;;23.80;98.70;;;;;;4956904;29;20517;-87
2023/08/05 03:26:49;;;;;;;1.30;1.10;;;23.80;98.60;;;;;;4957161;29;20848;-88
2023/08/05 03:29:16;;;;;;;1.23;1.13;;;23.80;98.70;;;;;;4957085;29;20943;-90
2023/08/05 03:31:42;;;;;;;1.40;1.30;;;23.80;98.70;;;;;;4956827;29;20536;-90
2023/08/05 03:34:09;;;;;;;1.20;1.10;;;23.80;98.70;;;;;;4956637;28;20589;-87
2023/08/05 03:36:37;;;;;;;1.23;1.13;;;23.80;98.60;;;;;;4956570;29;20476;-88
2023/08/05 03:39:04;;;;;;;1.20;1.00;;;23.80;98.60;;;;;;4956741;29;20427;-87
2023/08/05 03:41:31;;;;;;;1.50;1.40;;;23.80;98.60;;;;;;4956745;29;20520;-93
2023/08/05 03:44:01;;;;;;;2.13;1.33;;;23.80;98.70;;;;;;4956809;29;20528;-92
2023/08/05 03:46:28;;;;;;;1.70;1.30;;;23.80;98.60;;;;;;4956878;29;20492;-88
2023/08/05 03:48:54;;;;;;;1.10;1.00;;;23.80;98.40;;;;;;4956715;29;20594;-90
2023/08/05 03:51:21;;;;;;;1.43;1.33;;;23.80;98.60;;;;;;4956455;29;20448;-91
2023/08/05 03:53:48;;;;;;;2.03;1.20;;;23.90;98.60;;;;;;4956359;29;20883;-90
2023/08/05 03:56:19;;;;;;;1.27;1.17;;;23.80;98.60;;;;;;4956353;28;20443;-94
2023/08/05 03:58:46;;;;;;;1.40;1.30;;;23.90;98.50;;;;;;4956304;29;20793;-87
2023/08/05 04:01:16;;;;;;;1.43;1.33;;;23.80;98.50;;;;;;4956455;29;20469;-90
2023/08/05 04:03:43;;;;;;;1.53;1.20;;;23.80;98.60;;;;;;4956477;28;20817;-90
2023/08/05 04:06:11;;;;;;;1.37;1.27;;;23.80;98.40;;;;;;4956049;29;20975;-87
2023/08/05 04:08:39;;;;;;;1.67;1.57;;;23.80;98.40;;;;;;4939741;29;20465;-92
2023/08/05 04:11:06;;;;;;;1.40;1.30;;;23.80;98.40;;;;;;4956319;29;20442;-93
2023/08/05 04:13:34;;;;;;;1.50;1.23;;;23.80;98.50;;;;;;4956262;29;20481;-94
2023/08/05 04:16:03;;;;;;;1.40;1.30;;;23.80;98.50;;;;;;4956475;29;20490;-92
2023/08/05 04:18:33;;;;;;;1.63;1.53;;;23.80;98.40;;;;;;4956249;29;20457;-89
2023/08/05 04:21:00;;;;;;;1.60;1.40;;;23.80;98.70;;;;;;4956193;29;20450;-88
2023/08/05 04:23:30;;;;;;;1.20;1.10;;;23.80;98.60;;;;;;4956118;29;20455;-92
2023/08/05 04:25:58;;;;;;;1.20;1.07;;;23.80;98.60;;;;;;4955964;29;20924;-89
2023/08/05 04:28:24;;;;;;;1.30;1.20;;;23.80;98.70;;;;;;4956192;29;20450;-88
2023/08/05 04:30:52;;;;;;;1.50;1.40;;;23.80;98.70;;;;;;4955916;29;20530;-90
2023/08/05 04:33:19;;;;;;;1.83;1.73;;;23.80;98.80;;;;;;4955741;28;20506;-90
2023/08/05 04:35:48;;;;;;;1.30;1.20;;;23.80;98.90;;;;;;4955904;29;20446;-88
2023/08/05 04:38:15;;;;;;;1.30;1.20;;;23.80;98.80;;;;;;4955962;29;20442;-88
2023/08/05 04:40:42;;;;;;;1.40;1.30;;;23.80;98.90;;;;;;4955870;29;20446;-88
2023/08/05 04:43:09;;;;;;;1.83;1.10;;;23.80;98.80;;;;;;4955881;29;20454;-90
2023/08/05 04:45:36;;;;;;;1.30;1.20;;;23.80;99.10;;;;;;4955874;29;20445;-89
2023/08/05 04:48:04;;;;;;;1.57;1.20;;;23.80;99.10;;;;;;4955819;29;20536;-92
2023/08/05 04:50:31;;;;;;;1.37;1.27;;;23.80;99.00;;;;;;4955736;29;20469;-87
2023/08/05 04:52:59;;;;;;;1.40;1.20;;;23.80;98.90;;;;;;4955564;29;20873;-86
2023/08/05 04:55:26;;;;;;;2.03;1.37;;;23.80;98.90;;;;;;4955649;29;20486;-87
2023/08/05 04:57:53;;;;;;;1.43;1.10;;;23.80;99.10;;;;;;4955722;29;20441;-89
2023/08/05 05:00:20;;;;;;;1.30;1.20;;;23.80;99.30;;;;;;4955773;29;20537;-89
2023/08/05 05:02:48;;;;;;;1.30;1.20;;;23.80;99.20;;;;;;4955865;29;20482;-87
2023/08/05 05:05:15;;;;;;;1.40;1.30;;;23.80;99.10;;;;;;4955325;28;20458;-89
2023/08/05 05:07:42;;;;;;;1.60;1.50;;;23.80;99.10;;;;;;4955479;28;20524;-87
2023/08/05 05:10:10;;;;;;;1.40;1.23;;;23.80;99.20;;;;;;4958238;29;20443;-90
2023/08/05 05:12:37;;;;;;;1.40;1.30;;;23.80;98.80;;;;;;4959322;29;20962;-89
2023/08/05 05:15:05;;;;;;;1.10;0.97;;;23.80;98.40;;;;;;4959230;29;20573;-93
2023/08/05 05:17:34;;;;;;;1.30;1.20;;;23.80;98.60;;;;;;4959381;29;20446;-92
2023/08/05 05:20:01;;;;;;;1.30;1.20;;;23.80;98.60;;;;;;4959381;29;20449;-90
2023/08/05 05:22:28;;;;;;;1.23;1.13;;;23.80;98.50;;;;;;4959243;29;21023;-88
2023/08/05 05:24:55;;;;;;;1.30;1.20;;;23.80;98.50;;;;;;4959389;29;20445;-93
2023/08/05 05:27:23;;;;;;;1.67;1.57;;;23.80;98.60;;;;;;4959421;29;20448;-91
2023/08/05 05:29:50;;;;;;;1.53;1.43;;;23.80;98.60;;;;;;4959156;29;20452;-89
2023/08/05 05:32:17;;;;;;;1.40;1.27;;;23.80;98.40;;;;;;4959105;29;20458;-90
2023/08/05 05:34:44;;;;;;;1.30;1.20;;;23.80;98.50;;;;;;4959204;28;20584;-91
2023/08/05 05:37:10;;;;;;;1.20;1.10;;;23.80;98.50;;;;;;4959224;29;20536;-89
2023/08/05 05:39:39;;;;;;;1.30;1.20;;;23.80;98.40;;;;;;4959321;29;20469;-91
2023/08/05 05:42:06;;;;;;;1.40;1.30;;;23.80;98.40;;;;;;4958939;29;20917;-91
2023/08/05 05:44:35;;;;;;;1.43;1.33;;;23.80;98.30;;;;;;4958872;29;20463;-92
2023/08/05 05:47:01;;;;;;;1.60;1.40;;;23.80;98.50;;;;;;4959091;29;20940;-92
2023/08/05 05:49:28;;;;;;;1.23;1.13;;;23.80;98.30;;;;;;4958969;29;20517;-93
2023/08/05 05:51:55;;;;;;;1.53;1.43;;;23.90;98.60;;;;;;4959130;29;20454;-90
2023/08/05 05:54:22;;;;;;;2.03;1.50;;;23.90;98.40;;;;;;4958923;29;20493;-93
2023/08/05 05:56:49;;;;;;;1.57;1.37;;;23.90;98.40;;;;;;4958776;29;20533;-92
2023/08/05 05:59:16;;;;;;;1.43;1.33;;;23.90;98.40;;;;;;4958990;29;20447;-92
2023/08/05 06:01:44;;;;;;;1.37;1.27;;;23.80;98.10;;;;;;4959000;29;20444;-92
2023/08/05 06:04:11;;;;;;;1.60;1.50;;;23.90;98.20;;;;;;4958850;28;20465;-93
2023/08/05 06:06:38;;;;;;;1.37;1.27;;;23.90;98.70;;;;;;4958597;29;20482;-94
2023/08/05 06:09:06;;;;;;;1.53;1.20;;;23.90;98.60;;;;;;4958637;29;20914;-92
2023/08/05 06:11:33;;;;;;;1.67;1.40;;;23.90;98.70;;;;;;4958811;29;20441;-92
2023/08/05 06:14:00;;;;;;;1.50;1.40;;;23.90;98.80;;;;;;4958786;29;20539;-92
2023/08/05 06:16:27;;;;;;;1.70;1.57;;;23.90;98.70;;;;;;4958543;29;20461;-93
2023/08/05 06:18:55;;;;;;;1.57;1.47;;;23.90;98.90;;;;;;4958675;29;20540;-94
2023/08/05 06:21:22;;;;;;;2.47;1.50;;;23.90;98.90;;;;;;4958144;28;20446;-93
2023/08/05 06:23:49;;;;;;;1.40;1.30;;;23.90;98.70;;;;;;4958339;29;20463;-91
2023/08/05 06:26:16;;;;;;;1.67;1.57;;;23.90;98.70;;;;;;4958557;29;20793;-92
2023/08/05 06:28:42;;;;;;;1.20;1.10;;;23.90;98.60;;;;;;4958373;29;20434;-91
2023/08/05 06:31:09;;;;;;;1.60;1.50;;;23.90;98.80;;;;;;4958334;29;20796;-90
2023/08/05 06:33:36;;;;;;;1.70;1.33;;;24.00;98.80;;;;;;4958090;28;20548;-90
2023/08/05 06:36:05;;;;;;;1.40;1.30;;;23.90;98.90;;;;;;4958383;29;20572;-91
2023/08/05 06:38:32;;;;;;;1.47;1.37;;;23.90;98.90;;;;;;4958166;29;20537;-91
2023/08/05 06:40:58;;;;;;;1.40;1.30;;;23.90;98.60;;;;;;4958252;29;20450;-95
2023/08/05 06:43:25;;;;;;;1.77;1.30;;;23.90;98.70;;;;;;4958222;29;20469;-93
2023/08/05 06:45:52;;;;;;;1.57;1.47;;;24.00;98.80;;;;;;4957945;29;20519;-92
2023/08/05 06:48:19;;;;;;;1.50;1.40;;;23.90;98.90;;;;;;4958161;29;20439;-92
2023/08/05 06:50:46;;;;;;;1.60;1.30;;;23.90;98.40;;;;;;4958464;29;20464;-89
2023/08/05 06:53:14;;;;;;;1.30;1.20;;;24.00;98.60;;;;;;4958030;29;20440;-88
2023/08/05 06:55:40;;;;;;;1.50;1.40;;;24.00;98.70;;;;;;4958018;29;20496;-91
2023/08/05 06:58:07;;;;;;;1.63;1.53;;;23.90;98.70;;;;;;4957852;29;20473;-92
2023/08/05 07:00:34;;;;;;;1.30;1.20;;;23.90;98.50;;;;;;4957703;29;20439;-90
2023/08/05 07:03:02;;;;;;;1.30;1.20;;;24.00;99.00;;;;;;4957515;29;20478;-86
2023/08/05 07:05:29;;;;;;;1.60;1.50;;;23.90;98.80;;;;;;4957416;28;20453;-93
2023/08/05 07:07:56;;;;;;;1.43;1.33;;;23.90;98.70;;;;;;4957798;29;20443;-91
2023/08/05 07:10:25;;;;;;;1.50;1.40;;;24.00;98.90;;;;;;4959483;29;20439;-93
2023/08/05 07:12:52;;;;;;;1.50;1.40;;;24.00;98.90;;;;;;4958044;29;20787;-93
2023/08/05 07:15:18;;;;;;;1.27;1.10;;;24.00;99.00;;;;;;4960932;29;20578;-94
2023/08/05 07:20:29;;;;;;;1.50;1.40;;;24.00;99.00;;;;;;4970994;28;20457;-96
2023/08/05 07:22:57;;;;;;;2.73;1.90;;;24.00;98.70;;;;;;4977021;28;20430;-86
2023/08/05 07:28:03;;;;;;;3.83;1.83;;;24.00;98.90;;;;;;3227148;26;20501;-83
2023/08/05 08:10:27;;;;;;;2.33;1.70;;;24.00;98.70;;;;;;1176498;27;20487;-90
2023/08/05 08:12:56;;;;;;;1.40;1.30;;;24.10;98.90;;;;;;5013519;23;20469;-95
2023/08/05 08:15:26;;;;;;;1.70;1.60;;;24.10;98.40;;;;;;4977646;23;20499;-86
2023/08/05 08:20:37;;;;;;;1.67;1.53;;;24.10;96.50;;;;;;4952819;29;20464;-86
2023/08/05 08:25:46;;;;;;;1.70;1.60;;;24.20;96.10;;;;;;4999100;23;20498;-85
2023/08/05 08:28:13;;;;;;;1.80;1.70;;;24.10;95.90;;;;;;4978902;29;20430;-85
2023/08/05 08:30:40;;;;;;;2.00;1.80;;;24.20;95.90;;;;;;4976817;29;20482;-86
2023/08/05 08:33:07;;;;;;;1.53;1.43;;;24.20;96.00;;;;;;4970310;28;20542;-85
2023/08/05 08:35:35;;;;;;;1.60;1.50;;;24.20;96.00;;;;;;4962910;28;20478;-86
2023/08/05 08:38:02;;;;;;;2.33;1.40;;;24.20;95.90;;;;;;4963756;28;20450;-86
2023/08/05 08:40:35;;;;;;;2.00;1.60;;;24.20;95.90;;;;;;4964888;28;20503;-85
2023/08/05 08:43:04;;;;;;;2.37;2.10;;;24.20;96.00;;;;;;4969889;23;20445;-86
2023/08/05 08:45:37;;;;;;;2.10;1.97;;;24.20;95.80;;;;;;4921630;29;20686;-86
2023/08/05 08:48:04;;;;;;;2.20;2.00;;;24.20;95.70;;;;;;4921464;29;20953;-86
2023/08/05 08:50:31;;;;;;;1.77;1.67;;;24.20;95.70;;;;;;4923786;29;20536;-86
2023/08/05 08:52:59;;;;;;;2.07;1.90;;;24.20;95.60;;;;;;4924664;29;20457;-86
2023/08/05 08:55:27;;;;;;;3.10;2.53;;;24.20;95.60;;;;;;4923012;29;20662;-87
2023/08/05 08:57:58;;;;;;;2.00;1.90;;;24.20;95.70;;;;;;4926221;29;20985;-86
2023/08/05 09:00:27;;;;;;;2.20;2.10;;;24.20;95.70;;;;;;4925404;29;20481;-86
2023/08/05 09:02:55;;;;;;;1.83;1.73;;;24.20;95.50;;;;;;4927771;29;20458;-86
2023/08/05 09:05:22;;;;;;;2.10;1.90;;;24.20;95.50;;;;;;4929077;29;20538;-93
2023/08/05 09:07:50;;;;;;;1.97;1.77;;;24.30;95.60;;;;;;4927252;29;20444;-88
2023/08/05 09:10:18;;;;;;;1.70;1.60;;;24.30;95.50;;;;;;4927139;29;20538;-87
2023/08/05 09:12:47;;;;;;;2.40;2.20;;;24.30;95.50;;;;;;4927271;29;20447;-92
2023/08/05 09:15:16;;;;;;;3.50;2.00;;;24.30;95.50;;;;;;4926233;29;20523;-88
2023/08/05 09:17:44;;;;;;;1.90;1.80;;;24.40;95.40;;;;;;4926062;29;20455;-88
2023/08/05 09:20:13;;;;;;;2.50;2.20;;;24.40;95.40;;;;;;4925587;29;20455;-87
2023/08/05 09:22:40;;;;;;;2.17;1.97;;;24.40;95.30;;;;;;4925353;29;20530;-87
2023/08/05 09:25:07;;;;;;;1.87;1.77;;;24.40;95.30;;;;;;4925082;29;20448;-87
2023/08/05 09:27:46;;;;;;;2.40;2.30;;;24.40;95.30;;;;;;4925814;29;20455;-87
2023/08/05 09:30:17;;;;;;;2.23;1.90;;;24.40;95.70;;;;;;4908158;29;20451;-87
2023/08/05 09:32:47;;;;;;;2.33;2.23;;;24.40;95.30;;;;;;4924604;29;20496;-88
2023/08/05 09:35:17;;;;;;;1.90;1.80;;;24.40;95.30;;;;;;4925273;29;20577;-88
2023/08/05 09:37:49;;;;;;;2.10;2.00;;;24.40;95.30;;;;;;4925016;29;20448;-87
2023/08/05 09:40:17;;;;;;;2.30;2.10;;;24.40;95.20;;;;;;4925240;29;20455;-88
2023/08/05 09:42:48;;;;;;;1.97;1.70;;;24.40;95.30;;;;;;4925846;29;20446;-87
2023/08/05 09:45:16;;;;;;;2.50;2.30;;;24.50;95.40;;;;;;4926052;29;21060;-88
2023/08/05 09:47:46;;;;;;;2.50;2.30;;;24.50;95.30;;;;;;4925360;29;20451;-87
2023/08/05 09:50:15;;;;;;;1.80;1.70;;;24.50;95.30;;;;;;4926537;29;20456;-93
2023/08/05 09:52:43;;;;;;;2.10;2.00;;;24.50;95.30;;;;;;4925744;29;20483;-87
2023/08/05 09:55:13;;;;;;;2.37;2.27;;;24.50;95.40;;;;;;4927788;29;20991;-87
2023/08/05 09:57:41;;;;;;;3.60;2.20;;;24.50;95.30;;;;;;4929379;29;20501;-87
2023/08/05 10:00:11;;;;;;;3.73;2.20;;;24.50;95.30;;;;;;4928986;29;20450;-86
2023/08/05 10:02:40;;;;;;;2.13;2.00;;;24.50;95.30;;;;;;4929368;29;20505;-88
2023/08/05 10:05:09;;;;;;;2.50;2.30;;;24.50;95.20;;;;;;4928993;29;20450;-87
2023/08/05 10:07:39;;;;;;;2.00;1.83;;;24.50;95.30;;;;;;4928959;29;20448;-87
2023/08/05 10:10:09;;;;;;;2.17;2.07;;;24.60;95.40;;;;;;4929978;29;20454;-88
2023/08/05 10:12:40;;;;;;;2.50;2.40;;;24.60;95.30;;;;;;4928640;29;20587;-87
2023/08/05 10:15:09;;;;;;;4.90;2.10;;;24.60;95.30;;;;;;4930761;29;20614;-90
2023/08/05 10:17:39;;;;;;;2.23;2.13;;;24.60;95.40;;;;;;4931229;29;20480;-88
2023/08/05 10:20:07;;;;;;;2.57;2.40;;;24.60;95.30;;;;;;4930579;29;20437;-88
2023/08/05 10:22:34;;;;;;;2.50;2.30;;;24.60;95.30;;;;;;4928555;29;20506;-87
2023/08/05 10:25:02;;;;;;;2.80;2.60;;;24.60;95.30;;;;;;4928235;29;20496;-87
2023/08/05 10:27:40;;;;;;;2.87;2.67;;;24.60;95.40;;;;;;4928730;29;20540;-88
2023/08/05 10:30:12;;;;;;;2.40;2.20;;;24.60;95.30;;;;;;4929887;29;20476;-87
2023/08/05 10:32:52;;;;;;;3.00;2.80;;;24.60;95.40;;;;;;4929909;29;20464;-87
2023/08/05 10:35:29;;;;;;;2.70;2.50;;;24.60;95.30;;;;;;4928956;29;20510;-88
2023/08/05 10:38:11;;;;;;;2.50;2.30;;;24.60;95.30;;;;;;4929907;29;20441;-88
2023/08/05 10:40:45;;;;;;;2.90;2.70;;;24.60;95.30;;;;;;4936265;29;20446;-89
2023/08/05 10:43:34;;;;;;;2.47;2.27;;;24.60;95.30;;;;;;4934173;29;20468;-91
2023/08/05 10:46:12;;;;;;;2.60;2.40;;;24.60;95.30;;;;;;4935378;29;20475;-92
2023/08/05 10:48:41;;;;;;;3.00;2.80;;;24.60;95.40;;;;;;4935200;29;20453;-87
2023/08/05 10:51:09;;;;;;;2.30;2.20;;;24.60;95.30;;;;;;4935650;29;20449;-95
2023/08/05 10:53:44;;;;;;;3.10;2.90;;;24.60;95.40;;;;;;4937831;29;20445;-91
2023/08/05 10:56:14;;;;;;;3.00;2.80;;;24.60;95.30;;;;;;4935973;29;20507;-92
2023/08/05 10:58:47;;;;;;;2.73;2.53;;;24.60;95.40;;;;;;4930822;29;20471;-87
2023/08/05 11:01:16;;;;;;;2.10;2.00;;;24.60;95.30;;;;;;4932434;29;20550;-88
2023/08/05 11:03:46;;;;;;;3.03;2.83;;;24.60;95.30;;;;;;4935189;29;20464;-88
2023/08/05 11:06:14;;;;;;;2.87;2.67;;;24.60;95.30;;;;;;4931827;29;20486;-89
2023/08/05 11:08:43;;;;;;;2.73;2.53;;;24.60;95.40;;;;;;4929585;29;20971;-87
2023/08/05 11:11:13;;;;;;;2.70;2.50;;;24.70;95.50;;;;;;4913393;29;20459;-88
2023/08/05 11:13:44;;;;;;;2.70;2.50;;;24.70;95.50;;;;;;4916476;29;20449;-88
2023/08/05 11:16:12;;;;;;;2.93;2.73;;;24.70;95.30;;;;;;4937923;29;20520;-96
2023/08/05 11:18:40;;;;;;;2.67;2.47;;;24.70;95.30;;;;;;4922881;29;20456;-92
2023/08/05 11:21:14;;;;;;;3.00;2.80;;;24.70;95.30;;;;;;4922342;29;20516;-88
2023/08/05 11:23:46;;;;;;;2.70;2.50;;;24.70;95.30;;;;;;4937767;29;20447;-94
2023/08/05 11:26:14;;;;;;;2.97;2.77;;;24.60;95.30;;;;;;4937577;29;20453;-93
2023/08/05 11:28:47;;;;;;;2.97;2.77;;;24.60;95.30;;;;;;4936808;29;20509;-88
2023/08/05 11:31:31;;;;;;;2.83;2.63;;;24.60;95.30;;;;;;4935499;29;20472;-95
2023/08/05 11:33:58;;;;;;;2.23;2.13;;;24.70;95.30;;;;;;4929698;29;20470;-94
2023/08/05 11:36:26;;;;;;;2.70;2.50;;;24.70;95.30;;;;;;4930531;29;21063;-96
2023/08/05 11:38:57;;;;;;;2.73;2.53;;;24.70;95.40;;;;;;4930598;29;20441;-90
2023/08/05 11:41:24;;;;;;;2.50;2.40;;;24.70;95.20;;;;;;4930780;29;20512;-96
2023/08/05 11:43:54;;;;;;;3.00;2.80;;;24.60;95.20;;;;;;4930239;29;20563;-96
2023/08/05 11:46:28;;;;;;;2.93;2.73;;;24.60;95.20;;;;;;4928893;29;20459;-94
2023/08/05 11:49:08;;;;;;;3.20;3.00;;;24.60;95.30;;;;;;4929546;29;20455;-95
2023/08/05 11:51:49;;;;;;;2.93;2.73;;;24.60;95.30;;;;;;4929049;29;20447;-94
2023/08/05 11:54:24;;;;;;;3.03;2.83;;;24.60;95.20;;;;;;4912474;29;20448;-95
2023/08/05 11:56:51;;;;;;;2.57;2.37;;;24.60;95.30;;;;;;4930022;29;20557;-88
2023/08/05 11:59:36;;;;;;;2.73;2.60;;;24.60;95.20;;;;;;4930279;29;20498;-95
2023/08/05 12:02:05;;;;;;;2.70;2.50;;;24.60;95.30;;;;;;4926568;29;20489;-86
2023/08/05 12:04:32;;;;;;;3.07;2.87;;;24.60;95.30;;;;;;4928975;29;20518;-92
2023/08/05 12:07:00;;;;;;;2.70;2.50;;;24.50;95.10;;;;;;4925924;29;20474;-93
2023/08/05 12:09:27;;;;;;;3.13;2.93;;;24.50;95.10;;;;;;4929362;29;20509;-93
2023/08/05 12:11:57;;;;;;;2.90;2.70;;;24.60;95.20;;;;;;4930589;29;20455;-93
2023/08/05 12:14:25;;;;;;;3.00;2.80;;;24.60;95.20;;;;;;4929695;29;20452;-86
2023/08/05 12:16:58;;;;;;;3.13;2.93;;;24.60;95.10;;;;;;4927001;29;20580;-92
2023/08/05 12:19:27;;;;;;;3.33;3.03;;;24.60;95.10;;;;;;4925763;29;20444;-87
2023/08/05 12:21:56;;;;;;;3.40;3.20;;;24.60;95.10;;;;;;4929383;29;20453;-90
2023/08/05 12:24:24;;;;;;;2.77;2.57;;;24.60;95.10;;;;;;4913949;29;20450;-96
2023/08/05 12:26:54;;;;;;;2.33;2.23;;;24.60;95.10;;;;;;4929642;29;20471;-96
2023/08/05 12:29:22;;;;;;;2.37;2.27;;;24.50;95.10;;;;;;4929984;29;20469;-92
2023/08/05 12:31:50;;;;;;;2.73;2.53;;;24.60;95.20;;;;;;4930265;29;20471;-95
2023/08/05 12:34:18;;;;;;;2.83;2.63;;;24.60;95.20;;;;;;4930105;29;20465;-92
2023/08/05 12:36:46;;;;;;;2.90;2.70;;;24.60;95.20;;;;;;4930062;29;20515;-91
2023/08/05 12:39:13;;;;;;;2.70;2.50;;;24.50;95.10;;;;;;4928480;29;20783;-85
2023/08/05 12:41:40;;;;;;;2.83;2.63;;;24.50;95.10;;;;;;4924014;29;20442;-90
2023/08/05 12:44:07;;;;;;;3.00;2.80;;;24.50;95.10;;;;;;4923417;29;20570;-92
2023/08/05 12:46:34;;;;;;;3.03;2.83;;;24.60;95.20;;;;;;4924088;29;20468;-90
2023/08/05 12:49:02;;;;;;;3.23;3.03;;;24.60;95.20;;;;;;4925969;29;20461;-90
2023/08/05 12:51:30;;;;;;;2.87;2.67;;;24.50;95.10;;;;;;4927418;29;20477;-87
2023/08/05 12:53:57;;;;;;;2.97;2.77;;;24.50;95.10;;;;;;4925905;29;20480;-90
2023/08/05 12:56:24;;;;;;;2.90;2.70;;;24.60;95.20;;;;;;4923918;29;20500;-87
2023/08/05 12:58:51;;;;;;;2.40;2.20;;;24.60;95.20;;;;;;4926269;29;20442;-89
2023/08/05 13:01:17;;;;;;;3.30;3.10;;;24.50;95.10;;;;;;4926035;29;20467;-85
2023/08/05 13:03:44;;;;;;;2.83;2.63;;;24.50;95.20;;;;;;4926052;29;20473;-86
2023/08/05 13:06:13;;;;;;;2.90;2.70;;;24.50;95.20;;;;;;4924867;29;20480;-87
2023/08/05 13:08:39;;;;;;;2.47;2.37;;;24.50;95.10;;;;;;4924336;29;20431;-87
2023/08/05 13:11:06;;;;;;;3.00;2.80;;;24.50;95.10;;;;;;4907718;29;20454;-87
2023/08/05 13:13:33;;;;;;;2.87;2.67;;;24.50;95.10;;;;;;4924004;29;20865;-90
2023/08/05 13:16:00;;;;;;;3.17;2.97;;;24.60;95.10;;;;;;4923794;29;20540;-86
2023/08/05 13:18:27;;;;;;;2.60;2.40;;;24.50;95.00;;;;;;4924694;29;20478;-85
2023/08/05 13:20:54;;;;;;;2.60;2.40;;;24.60;95.10;;;;;;4924064;29;20832;-90
2023/08/05 13:23:22;;;;;;;3.10;2.90;;;24.50;95.10;;;;;;4923754;29;20488;-86
2023/08/05 13:25:49;;;;;;;2.50;2.40;;;24.50;95.10;;;;;;4923104;29;20509;-87
2023/08/05 13:28:16;;;;;;;2.67;2.50;;;24.50;95.10;;;;;;4923691;29;20540;-86
2023/08/05 13:30:43;;;;;;;2.80;2.60;;;24.50;95.10;;;;;;4925244;29;20509;-86
2023/08/05 13:33:10;;;;;;;3.10;2.90;;;24.60;95.20;;;;;;4926804;29;20543;-87
2023/08/05 13:35:36;;;;;;;2.87;2.67;;;24.60;95.20;;;;;;4926378;29;20447;-87
2023/08/05 13:38:03;;;;;;;2.73;2.60;;;24.50;95.10;;;;;;4924808;29;20505;-86
2023/08/05 13:40:33;;;;;;;3.20;3.00;;;24.60;95.30;;;;;;4927323;29;20533;-91
2023/08/05 13:42:59;;;;;;;3.07;2.87;;;24.60;95.20;;;;;;4924590;29;20967;-86
2023/08/05 13:45:26;;;;;;;2.40;2.20;;;24.60;95.20;;;;;;4923966;29;20496;-87
2023/08/05 13:47:54;;;;;;;3.07;2.77;;;24.60;95.20;;;;;;4925348;29;20479;-90